sensor_id;sensor_type;location;lat;lon;timestamp;P1;durP1;ratioP1;P2;durP2;ratioP2
25567;SDS011;13455;51.480;7.594;2023-03-01T00:01:22;20.90;;;11.63;;
25567;SDS011;13455;51.480;7.594;2023-03-01T00:03:50;18.40;;;11.15;;
25567;SDS011;13455;51.480;7.594;2023-03-01T00:06:17;17.65;;;11.02;;
25567;SDS011;13455;51.480;7.594;2023-03-01T00:08:42;17.88;;;11.32;;
25567;SDS011;13455;51.480;7.594;2023-03-01T00:11:12;18.58;;;11.07;;
25567;SDS011;13455;51.480;7.594;2023-03-01T00:13:39;18.35;;;11.52;;
25567;SDS011;13455;51.480;7.594;2023-03-01T00:16:11;17.40;;;10.90;;
25567;SDS011;13455;51.480;7.594;2023-03-01T00:18:38;16.70;;;10.63;;
25567;SDS011;13455;51.480;7.594;2023-03-01T00:21:04;17.67;;;10.68;;
25567;SDS011;13455;51.480;7.594;2023-03-01T00:23:30;18.10;;;11.35;;
25567;SDS011;13455;51.480;7.594;2023-03-01T00:25:56;20.83;;;12.05;;
25567;SDS011;13455;51.480;7.594;2023-03-01T00:28:22;16.83;;;10.85;;
25567;SDS011;13455;51.480;7.594;2023-03-01T00:30:48;18.63;;;11.30;;
25567;SDS011;13455;51.480;7.594;2023-03-01T00:33:14;18.42;;;11.18;;
25567;SDS011;13455;51.480;7.594;2023-03-01T00:35:40;18.47;;;11.13;;
25567;SDS011;13455;51.480;7.594;2023-03-01T00:38:06;18.40;;;11.30;;
25567;SDS011;13455;51.480;7.594;2023-03-01T00:40:32;20.35;;;11.68;;
25567;SDS011;13455;51.480;7.594;2023-03-01T00:42:59;18.75;;;11.63;;
25567;SDS011;13455;51.480;7.594;2023-03-01T00:45:25;19.13;;;12.13;;
25567;SDS011;13455;51.480;7.594;2023-03-01T00:47:51;20.33;;;12.13;;
25567;SDS011;13455;51.480;7.594;2023-03-01T00:50:16;20.70;;;12.75;;
25567;SDS011;13455;51.480;7.594;2023-03-01T00:52:43;20.52;;;12.65;;
25567;SDS011;13455;51.480;7.594;2023-03-01T00:55:08;19.17;;;12.20;;
25567;SDS011;13455;51.480;7.594;2023-03-01T00:57:35;19.63;;;12.07;;
25567;SDS011;13455;51.480;7.594;2023-03-01T01:00:00;21.52;;;12.30;;
25567;SDS011;13455;51.480;7.594;2023-03-01T01:02:26;17.90;;;11.77;;
25567;SDS011;13455;51.480;7.594;2023-03-01T01:04:52;17.75;;;11.40;;
25567;SDS011;13455;51.480;7.594;2023-03-01T01:07:18;20.17;;;11.35;;
25567;SDS011;13455;51.480;7.594;2023-03-01T01:09:45;17.33;;;10.50;;
25567;SDS011;13455;51.480;7.594;2023-03-01T01:12:11;17.95;;;10.43;;
25567;SDS011;13455;51.480;7.594;2023-03-01T01:14:37;18.52;;;10.60;;
25567;SDS011;13455;51.480;7.594;2023-03-01T01:17:03;16.77;;;10.53;;
25567;SDS011;13455;51.480;7.594;2023-03-01T01:19:28;15.45;;;10.25;;
25567;SDS011;13455;51.480;7.594;2023-03-01T01:21:54;17.90;;;10.38;;
25567;SDS011;13455;51.480;7.594;2023-03-01T01:24:20;17.73;;;10.77;;
25567;SDS011;13455;51.480;7.594;2023-03-01T01:26:46;16.95;;;10.70;;
25567;SDS011;13455;51.480;7.594;2023-03-01T01:29:12;18.57;;;10.90;;
25567;SDS011;13455;51.480;7.594;2023-03-01T01:31:39;18.08;;;10.63;;
25567;SDS011;13455;51.480;7.594;2023-03-01T01:34:07;17.60;;;10.27;;
25567;SDS011;13455;51.480;7.594;2023-03-01T01:36:33;17.48;;;10.70;;
25567;SDS011;13455;51.480;7.594;2023-03-01T01:38:59;18.05;;;10.75;;
25567;SDS011;13455;51.480;7.594;2023-03-01T01:41:27;17.65;;;11.20;;
25567;SDS011;13455;51.480;7.594;2023-03-01T01:44:14;18.55;;;11.07;;
25567;SDS011;13455;51.480;7.594;2023-03-01T01:46:40;20.80;;;12.25;;
25567;SDS011;13455;51.480;7.594;2023-03-01T01:49:10;22.35;;;12.10;;
25567;SDS011;13455;51.480;7.594;2023-03-01T01:51:39;21.17;;;12.48;;
25567;SDS011;13455;51.480;7.594;2023-03-01T01:54:10;20.42;;;13.05;;
25567;SDS011;13455;51.480;7.594;2023-03-01T01:56:37;20.85;;;12.88;;
25567;SDS011;13455;51.480;7.594;2023-03-01T01:59:04;22.30;;;13.07;;
25567;SDS011;13455;51.480;7.594;2023-03-01T02:01:31;22.08;;;12.95;;
25567;SDS011;13455;51.480;7.594;2023-03-01T02:03:57;20.80;;;12.90;;
25567;SDS011;13455;51.480;7.594;2023-03-01T02:06:31;22.58;;;13.00;;
25567;SDS011;13455;51.480;7.594;2023-03-01T02:08:59;21.63;;;13.50;;
25567;SDS011;13455;51.480;7.594;2023-03-01T02:11:26;22.30;;;13.77;;
25567;SDS011;13455;51.480;7.594;2023-03-01T02:13:52;21.23;;;13.93;;
25567;SDS011;13455;51.480;7.594;2023-03-01T02:16:19;22.88;;;13.80;;
25567;SDS011;13455;51.480;7.594;2023-03-01T02:18:46;22.25;;;13.75;;
25567;SDS011;13455;51.480;7.594;2023-03-01T02:23:38;23.40;;;14.90;;
25567;SDS011;13455;51.480;7.594;2023-03-01T02:26:11;21.15;;;13.68;;
25567;SDS011;13455;51.480;7.594;2023-03-01T02:28:42;22.48;;;13.63;;
25567;SDS011;13455;51.480;7.594;2023-03-01T02:31:09;22.60;;;14.43;;
25567;SDS011;13455;51.480;7.594;2023-03-01T02:33:54;23.70;;;13.77;;
25567;SDS011;13455;51.480;7.594;2023-03-01T02:36:29;22.65;;;13.65;;
25567;SDS011;13455;51.480;7.594;2023-03-01T02:38:59;22.55;;;13.63;;
25567;SDS011;13455;51.480;7.594;2023-03-01T02:41:27;23.55;;;13.88;;
25567;SDS011;13455;51.480;7.594;2023-03-01T02:43:55;22.25;;;13.57;;
25567;SDS011;13455;51.480;7.594;2023-03-01T02:46:22;20.55;;;13.23;;
25567;SDS011;13455;51.480;7.594;2023-03-01T02:48:50;20.70;;;13.00;;
25567;SDS011;13455;51.480;7.594;2023-03-01T02:51:22;20.90;;;12.95;;
25567;SDS011;13455;51.480;7.594;2023-03-01T02:53:59;22.20;;;13.13;;
25567;SDS011;13455;51.480;7.594;2023-03-01T02:56:37;20.83;;;12.87;;
25567;SDS011;13455;51.480;7.594;2023-03-01T02:59:02;22.35;;;13.30;;
25567;SDS011;13455;51.480;7.594;2023-03-01T03:01:29;20.92;;;13.00;;
25567;SDS011;13455;51.480;7.594;2023-03-01T03:04:05;20.33;;;12.70;;
25567;SDS011;13455;51.480;7.594;2023-03-01T03:06:32;20.50;;;12.93;;
25567;SDS011;13455;51.480;7.594;2023-03-01T03:08:58;20.58;;;13.10;;
25567;SDS011;13455;51.480;7.594;2023-03-01T03:11:24;19.83;;;12.95;;
25567;SDS011;13455;51.480;7.594;2023-03-01T03:13:50;20.33;;;12.82;;
25567;SDS011;13455;51.480;7.594;2023-03-01T03:16:17;21.20;;;12.82;;
25567;SDS011;13455;51.480;7.594;2023-03-01T03:18:43;21.55;;;12.98;;
25567;SDS011;13455;51.480;7.594;2023-03-01T03:21:09;19.83;;;13.30;;
25567;SDS011;13455;51.480;7.594;2023-03-01T03:23:36;19.27;;;13.00;;
25567;SDS011;13455;51.480;7.594;2023-03-01T03:26:03;20.10;;;13.00;;
25567;SDS011;13455;51.480;7.594;2023-03-01T03:28:30;22.55;;;13.45;;
25567;SDS011;13455;51.480;7.594;2023-03-01T03:30:56;20.45;;;12.95;;
25567;SDS011;13455;51.480;7.594;2023-03-01T03:33:21;21.70;;;13.00;;
25567;SDS011;13455;51.480;7.594;2023-03-01T03:35:48;20.42;;;12.43;;
25567;SDS011;13455;51.480;7.594;2023-03-01T03:38:15;22.00;;;13.30;;
25567;SDS011;13455;51.480;7.594;2023-03-01T03:40:45;21.77;;;13.70;;
25567;SDS011;13455;51.480;7.594;2023-03-01T03:43:16;21.63;;;13.27;;
25567;SDS011;13455;51.480;7.594;2023-03-01T03:45:43;19.92;;;13.15;;
25567;SDS011;13455;51.480;7.594;2023-03-01T03:48:09;21.73;;;13.10;;
25567;SDS011;13455;51.480;7.594;2023-03-01T03:50:36;21.90;;;12.93;;
25567;SDS011;13455;51.480;7.594;2023-03-01T03:53:03;20.13;;;12.63;;
25567;SDS011;13455;51.480;7.594;2023-03-01T03:55:29;20.92;;;12.95;;
25567;SDS011;13455;51.480;7.594;2023-03-01T03:57:56;21.03;;;13.37;;
25567;SDS011;13455;51.480;7.594;2023-03-01T04:00:23;20.33;;;13.02;;
25567;SDS011;13455;51.480;7.594;2023-03-01T04:02:49;20.60;;;13.20;;
25567;SDS011;13455;51.480;7.594;2023-03-01T04:05:16;20.73;;;13.20;;
25567;SDS011;13455;51.480;7.594;2023-03-01T04:07:43;19.63;;;13.20;;
25567;SDS011;13455;51.480;7.594;2023-03-01T04:10:10;19.90;;;12.95;;
25567;SDS011;13455;51.480;7.594;2023-03-01T04:12:36;19.52;;;12.80;;
25567;SDS011;13455;51.480;7.594;2023-03-01T04:15:03;21.75;;;12.23;;
25567;SDS011;13455;51.480;7.594;2023-03-01T04:17:37;19.50;;;12.40;;
25567;SDS011;13455;51.480;7.594;2023-03-01T04:20:04;20.95;;;12.82;;
25567;SDS011;13455;51.480;7.594;2023-03-01T04:22:31;20.60;;;13.02;;
25567;SDS011;13455;51.480;7.594;2023-03-01T04:24:58;21.02;;;12.75;;
25567;SDS011;13455;51.480;7.594;2023-03-01T04:27:31;20.00;;;12.87;;
25567;SDS011;13455;51.480;7.594;2023-03-01T04:29:57;21.98;;;13.20;;
25567;SDS011;13455;51.480;7.594;2023-03-01T04:32:23;22.30;;;13.70;;
25567;SDS011;13455;51.480;7.594;2023-03-01T04:34:49;26.00;;;13.95;;
25567;SDS011;13455;51.480;7.594;2023-03-01T04:37:15;21.90;;;13.38;;
25567;SDS011;13455;51.480;7.594;2023-03-01T04:39:41;24.02;;;14.38;;
25567;SDS011;13455;51.480;7.594;2023-03-01T04:42:12;21.98;;;13.88;;
25567;SDS011;13455;51.480;7.594;2023-03-01T04:44:38;20.98;;;14.02;;
25567;SDS011;13455;51.480;7.594;2023-03-01T04:47:04;24.02;;;13.98;;
25567;SDS011;13455;51.480;7.594;2023-03-01T04:49:30;21.83;;;13.52;;
25567;SDS011;13455;51.480;7.594;2023-03-01T04:51:56;21.33;;;13.93;;
25567;SDS011;13455;51.480;7.594;2023-03-01T04:54:27;21.75;;;14.13;;
25567;SDS011;13455;51.480;7.594;2023-03-01T04:56:53;24.20;;;14.43;;
25567;SDS011;13455;51.480;7.594;2023-03-01T04:59:19;20.10;;;13.93;;
25567;SDS011;13455;51.480;7.594;2023-03-01T05:01:47;23.53;;;15.10;;
25567;SDS011;13455;51.480;7.594;2023-03-01T05:04:13;24.00;;;14.70;;
25567;SDS011;13455;51.480;7.594;2023-03-01T05:06:39;23.85;;;15.27;;
25567;SDS011;13455;51.480;7.594;2023-03-01T05:09:05;23.93;;;14.80;;
25567;SDS011;13455;51.480;7.594;2023-03-01T05:11:31;25.17;;;14.93;;
25567;SDS011;13455;51.480;7.594;2023-03-01T05:14:01;23.85;;;15.25;;
25567;SDS011;13455;51.480;7.594;2023-03-01T05:16:28;22.90;;;14.90;;
25567;SDS011;13455;51.480;7.594;2023-03-01T05:18:55;23.33;;;13.68;;
25567;SDS011;13455;51.480;7.594;2023-03-01T05:21:21;22.60;;;14.05;;
25567;SDS011;13455;51.480;7.594;2023-03-01T05:23:47;21.47;;;14.20;;
25567;SDS011;13455;51.480;7.594;2023-03-01T05:26:14;22.13;;;13.93;;
25567;SDS011;13455;51.480;7.594;2023-03-01T05:28:40;19.77;;;13.13;;
25567;SDS011;13455;51.480;7.594;2023-03-01T05:31:06;20.47;;;13.80;;
25567;SDS011;13455;51.480;7.594;2023-03-01T05:33:38;22.42;;;13.23;;
25567;SDS011;13455;51.480;7.594;2023-03-01T05:36:08;21.65;;;13.52;;
25567;SDS011;13455;51.480;7.594;2023-03-01T05:38:34;19.98;;;13.40;;
25567;SDS011;13455;51.480;7.594;2023-03-01T05:41:00;22.30;;;13.63;;
25567;SDS011;13455;51.480;7.594;2023-03-01T05:43:29;22.60;;;14.53;;
25567;SDS011;13455;51.480;7.594;2023-03-01T05:45:57;23.02;;;14.30;;
25567;SDS011;13455;51.480;7.594;2023-03-01T05:48:23;22.47;;;13.87;;
25567;SDS011;13455;51.480;7.594;2023-03-01T05:50:48;24.10;;;14.80;;
25567;SDS011;13455;51.480;7.594;2023-03-01T05:53:16;21.53;;;14.60;;
25567;SDS011;13455;51.480;7.594;2023-03-01T05:55:44;22.02;;;14.57;;
25567;SDS011;13455;51.480;7.594;2023-03-01T05:58:13;23.15;;;14.25;;
25567;SDS011;13455;51.480;7.594;2023-03-01T06:00:40;23.00;;;14.75;;
25567;SDS011;13455;51.480;7.594;2023-03-01T06:03:06;23.65;;;14.80;;
25567;SDS011;13455;51.480;7.594;2023-03-01T06:05:35;25.55;;;14.60;;
25567;SDS011;13455;51.480;7.594;2023-03-01T06:08:01;23.05;;;14.00;;
25567;SDS011;13455;51.480;7.594;2023-03-01T06:10:28;24.67;;;14.35;;
25567;SDS011;13455;51.480;7.594;2023-03-01T06:12:54;24.70;;;14.65;;
25567;SDS011;13455;51.480;7.594;2023-03-01T06:15:20;22.77;;;14.45;;
25567;SDS011;13455;51.480;7.594;2023-03-01T06:17:47;23.48;;;14.50;;
25567;SDS011;13455;51.480;7.594;2023-03-01T06:20:14;23.55;;;14.65;;
25567;SDS011;13455;51.480;7.594;2023-03-01T06:22:42;22.73;;;14.38;;
25567;SDS011;13455;51.480;7.594;2023-03-01T06:25:14;21.77;;;14.60;;
25567;SDS011;13455;51.480;7.594;2023-03-01T06:27:41;23.07;;;14.37;;
25567;SDS011;13455;51.480;7.594;2023-03-01T06:30:08;21.77;;;13.48;;
25567;SDS011;13455;51.480;7.594;2023-03-01T06:32:35;20.65;;;13.55;;
25567;SDS011;13455;51.480;7.594;2023-03-01T06:35:02;23.50;;;13.70;;
25567;SDS011;13455;51.480;7.594;2023-03-01T06:37:28;20.83;;;13.48;;
25567;SDS011;13455;51.480;7.594;2023-03-01T06:39:54;21.10;;;13.10;;
25567;SDS011;13455;51.480;7.594;2023-03-01T06:42:19;21.38;;;13.88;;
25567;SDS011;13455;51.480;7.594;2023-03-01T06:44:45;22.17;;;13.65;;
25567;SDS011;13455;51.480;7.594;2023-03-01T06:47:11;25.40;;;14.75;;
25567;SDS011;13455;51.480;7.594;2023-03-01T06:49:37;25.70;;;15.00;;
25567;SDS011;13455;51.480;7.594;2023-03-01T06:52:03;23.25;;;14.07;;
25567;SDS011;13455;51.480;7.594;2023-03-01T06:54:28;25.13;;;14.30;;
25567;SDS011;13455;51.480;7.594;2023-03-01T06:56:54;23.97;;;14.50;;
25567;SDS011;13455;51.480;7.594;2023-03-01T06:59:20;23.73;;;14.73;;
25567;SDS011;13455;51.480;7.594;2023-03-01T07:01:45;25.65;;;15.35;;
25567;SDS011;13455;51.480;7.594;2023-03-01T07:04:12;26.10;;;15.07;;
25567;SDS011;13455;51.480;7.594;2023-03-01T07:06:38;27.63;;;15.57;;
25567;SDS011;13455;51.480;7.594;2023-03-01T07:09:04;23.02;;;14.35;;
25567;SDS011;13455;51.480;7.594;2023-03-01T07:11:30;28.20;;;14.60;;
25567;SDS011;13455;51.480;7.594;2023-03-01T07:13:56;22.52;;;14.02;;
25567;SDS011;13455;51.480;7.594;2023-03-01T07:16:21;22.40;;;13.85;;
25567;SDS011;13455;51.480;7.594;2023-03-01T07:18:47;23.63;;;14.23;;
25567;SDS011;13455;51.480;7.594;2023-03-01T07:21:13;23.27;;;14.07;;
25567;SDS011;13455;51.480;7.594;2023-03-01T07:23:40;22.92;;;14.50;;
25567;SDS011;13455;51.480;7.594;2023-03-01T07:26:06;23.52;;;14.90;;
25567;SDS011;13455;51.480;7.594;2023-03-01T07:28:31;23.17;;;14.23;;
25567;SDS011;13455;51.480;7.594;2023-03-01T07:31:04;19.73;;;13.55;;
25567;SDS011;13455;51.480;7.594;2023-03-01T07:33:30;22.58;;;14.55;;
25567;SDS011;13455;51.480;7.594;2023-03-01T07:35:57;22.05;;;13.90;;
25567;SDS011;13455;51.480;7.594;2023-03-01T07:38:23;21.67;;;13.60;;
25567;SDS011;13455;51.480;7.594;2023-03-01T07:40:49;19.83;;;12.85;;
25567;SDS011;13455;51.480;7.594;2023-03-01T07:43:14;21.05;;;13.73;;
25567;SDS011;13455;51.480;7.594;2023-03-01T07:45:40;23.85;;;13.52;;
25567;SDS011;13455;51.480;7.594;2023-03-01T07:48:05;20.47;;;13.53;;
25567;SDS011;13455;51.480;7.594;2023-03-01T07:50:31;20.27;;;12.70;;
25567;SDS011;13455;51.480;7.594;2023-03-01T07:52:56;19.50;;;12.77;;
25567;SDS011;13455;51.480;7.594;2023-03-01T07:55:22;19.40;;;12.48;;
25567;SDS011;13455;51.480;7.594;2023-03-01T07:57:48;19.13;;;11.80;;
25567;SDS011;13455;51.480;7.594;2023-03-01T08:00:13;19.93;;;11.57;;
25567;SDS011;13455;51.480;7.594;2023-03-01T08:02:39;17.88;;;11.93;;
25567;SDS011;13455;51.480;7.594;2023-03-01T08:05:09;19.90;;;12.52;;
25567;SDS011;13455;51.480;7.594;2023-03-01T08:07:35;20.67;;;12.47;;
25567;SDS011;13455;51.480;7.594;2023-03-01T08:10:00;20.38;;;12.60;;
25567;SDS011;13455;51.480;7.594;2023-03-01T08:12:26;18.90;;;11.70;;
25567;SDS011;13455;51.480;7.594;2023-03-01T08:14:53;16.83;;;11.52;;
25567;SDS011;13455;51.480;7.594;2023-03-01T08:17:19;19.05;;;12.57;;
25567;SDS011;13455;51.480;7.594;2023-03-01T08:19:44;18.35;;;12.45;;
25567;SDS011;13455;51.480;7.594;2023-03-01T08:22:10;21.27;;;12.00;;
25567;SDS011;13455;51.480;7.594;2023-03-01T08:24:35;19.27;;;12.40;;
25567;SDS011;13455;51.480;7.594;2023-03-01T08:27:01;18.73;;;11.27;;
25567;SDS011;13455;51.480;7.594;2023-03-01T08:29:27;17.10;;;10.82;;
25567;SDS011;13455;51.480;7.594;2023-03-01T08:31:55;15.43;;;10.50;;
25567;SDS011;13455;51.480;7.594;2023-03-01T08:34:21;17.23;;;10.87;;
25567;SDS011;13455;51.480;7.594;2023-03-01T08:36:47;16.58;;;10.23;;
25567;SDS011;13455;51.480;7.594;2023-03-01T08:39:13;15.20;;;10.00;;
25567;SDS011;13455;51.480;7.594;2023-03-01T08:41:40;15.60;;;10.13;;
25567;SDS011;13455;51.480;7.594;2023-03-01T08:44:06;15.57;;;9.60;;
25567;SDS011;13455;51.480;7.594;2023-03-01T08:46:33;17.95;;;10.10;;
25567;SDS011;13455;51.480;7.594;2023-03-01T08:49:03;16.75;;;9.98;;
25567;SDS011;13455;51.480;7.594;2023-03-01T08:51:30;16.10;;;9.68;;
25567;SDS011;13455;51.480;7.594;2023-03-01T08:53:57;14.90;;;9.10;;
25567;SDS011;13455;51.480;7.594;2023-03-01T08:56:23;13.63;;;8.82;;
25567;SDS011;13455;51.480;7.594;2023-03-01T08:58:49;13.27;;;8.90;;
25567;SDS011;13455;51.480;7.594;2023-03-01T09:01:16;15.07;;;8.80;;
25567;SDS011;13455;51.480;7.594;2023-03-01T09:03:43;12.93;;;8.23;;
25567;SDS011;13455;51.480;7.594;2023-03-01T09:06:09;14.02;;;7.97;;
25567;SDS011;13455;51.480;7.594;2023-03-01T09:08:37;13.77;;;8.90;;
25567;SDS011;13455;51.480;7.594;2023-03-01T09:11:04;13.68;;;8.98;;
25567;SDS011;13455;51.480;7.594;2023-03-01T09:13:32;13.63;;;8.50;;
25567;SDS011;13455;51.480;7.594;2023-03-01T09:15:59;14.30;;;8.30;;
25567;SDS011;13455;51.480;7.594;2023-03-01T09:18:26;11.85;;;8.02;;
25567;SDS011;13455;51.480;7.594;2023-03-01T09:20:52;12.95;;;8.10;;
25567;SDS011;13455;51.480;7.594;2023-03-01T09:23:20;12.80;;;8.13;;
25567;SDS011;13455;51.480;7.594;2023-03-01T09:25:46;13.80;;;8.13;;
25567;SDS011;13455;51.480;7.594;2023-03-01T09:28:12;12.63;;;8.70;;
25567;SDS011;13455;51.480;7.594;2023-03-01T09:30:38;13.33;;;8.43;;
25567;SDS011;13455;51.480;7.594;2023-03-01T09:33:03;13.50;;;8.40;;
25567;SDS011;13455;51.480;7.594;2023-03-01T09:35:29;14.35;;;8.63;;
25567;SDS011;13455;51.480;7.594;2023-03-01T09:37:55;12.82;;;8.35;;
25567;SDS011;13455;51.480;7.594;2023-03-01T09:40:21;14.03;;;8.07;;
25567;SDS011;13455;51.480;7.594;2023-03-01T09:42:57;12.57;;;8.00;;
25567;SDS011;13455;51.480;7.594;2023-03-01T09:45:31;14.32;;;7.68;;
25567;SDS011;13455;51.480;7.594;2023-03-01T09:48:00;13.65;;;8.10;;
25567;SDS011;13455;51.480;7.594;2023-03-01T09:50:28;11.27;;;7.72;;
25567;SDS011;13455;51.480;7.594;2023-03-01T09:55:49;12.98;;;7.93;;
25567;SDS011;13455;51.480;7.594;2023-03-01T10:00:53;13.70;;;8.05;;
25567;SDS011;13455;51.480;7.594;2023-03-01T10:03:26;13.30;;;8.73;;
25567;SDS011;13455;51.480;7.594;2023-03-01T10:06:01;13.70;;;8.55;;
25567;SDS011;13455;51.480;7.594;2023-03-01T10:08:55;12.40;;;8.48;;
25567;SDS011;13455;51.480;7.594;2023-03-01T10:11:26;15.70;;;8.88;;
25567;SDS011;13455;51.480;7.594;2023-03-01T10:14:03;13.23;;;8.47;;
25567;SDS011;13455;51.480;7.594;2023-03-01T10:22:15;13.60;;;7.88;;
25567;SDS011;13455;51.480;7.594;2023-03-01T10:24:46;13.77;;;8.20;;
25567;SDS011;13455;51.480;7.594;2023-03-01T10:32:17;14.27;;;7.90;;
25567;SDS011;13455;51.480;7.594;2023-03-01T10:34:43;11.52;;;7.80;;
25567;SDS011;13455;51.480;7.594;2023-03-01T10:37:11;12.80;;;7.70;;
25567;SDS011;13455;51.480;7.594;2023-03-01T10:39:37;12.73;;;7.90;;
25567;SDS011;13455;51.480;7.594;2023-03-01T10:42:22;12.05;;;8.00;;
25567;SDS011;13455;51.480;7.594;2023-03-01T10:44:50;12.65;;;8.30;;
25567;SDS011;13455;51.480;7.594;2023-03-01T10:47:19;14.27;;;8.02;;
25567;SDS011;13455;51.480;7.594;2023-03-01T10:50:17;11.50;;;7.73;;
25567;SDS011;13455;51.480;7.594;2023-03-01T10:52:42;10.77;;;7.63;;
25567;SDS011;13455;51.480;7.594;2023-03-01T10:58:18;13.52;;;7.95;;
25567;SDS011;13455;51.480;7.594;2023-03-01T11:00:53;13.93;;;8.00;;
25567;SDS011;13455;51.480;7.594;2023-03-01T11:03:24;11.35;;;8.07;;
25567;SDS011;13455;51.480;7.594;2023-03-01T11:05:55;13.23;;;8.15;;
25567;SDS011;13455;51.480;7.594;2023-03-01T11:21:34;13.23;;;7.68;;
25567;SDS011;13455;51.480;7.594;2023-03-01T11:24:04;11.87;;;7.57;;
25567;SDS011;13455;51.480;7.594;2023-03-01T11:26:33;12.45;;;8.25;;
25567;SDS011;13455;51.480;7.594;2023-03-01T11:29:05;10.90;;;7.75;;
25567;SDS011;13455;51.480;7.594;2023-03-01T11:31:33;11.52;;;7.32;;
25567;SDS011;13455;51.480;7.594;2023-03-01T11:34:02;12.45;;;8.23;;
25567;SDS011;13455;51.480;7.594;2023-03-01T11:36:36;14.40;;;8.70;;
25567;SDS011;13455;51.480;7.594;2023-03-01T11:42:42;11.18;;;7.80;;
25567;SDS011;13455;51.480;7.594;2023-03-01T11:44:42;12.33;;;7.43;;
25567;SDS011;13455;51.480;7.594;2023-03-01T11:47:19;11.38;;;7.72;;
25567;SDS011;13455;51.480;7.594;2023-03-01T12:00:30;11.02;;;7.30;;
25567;SDS011;13455;51.480;7.594;2023-03-01T12:05:39;13.05;;;7.60;;
25567;SDS011;13455;51.480;7.594;2023-03-01T12:08:20;12.32;;;7.78;;
25567;SDS011;13455;51.480;7.594;2023-03-01T12:11:06;11.75;;;7.55;;
25567;SDS011;13455;51.480;7.594;2023-03-01T12:13:42;11.83;;;7.40;;
25567;SDS011;13455;51.480;7.594;2023-03-01T12:22:13;13.00;;;7.72;;
25567;SDS011;13455;51.480;7.594;2023-03-01T12:24:48;13.03;;;7.60;;
25567;SDS011;13455;51.480;7.594;2023-03-01T12:38:32;11.27;;;7.25;;
25567;SDS011;13455;51.480;7.594;2023-03-01T12:49:51;10.10;;;7.25;;
25567;SDS011;13455;51.480;7.594;2023-03-01T12:54:46;11.38;;;7.15;;
25567;SDS011;13455;51.480;7.594;2023-03-01T12:57:33;11.07;;;7.45;;
25567;SDS011;13455;51.480;7.594;2023-03-01T13:03:11;11.55;;;7.20;;
25567;SDS011;13455;51.480;7.594;2023-03-01T13:05:57;11.32;;;7.03;;
25567;SDS011;13455;51.480;7.594;2023-03-01T13:11:25;9.38;;;6.40;;
25567;SDS011;13455;51.480;7.594;2023-03-01T13:14:35;9.48;;;6.50;;
25567;SDS011;13455;51.480;7.594;2023-03-01T13:16:57;9.75;;;6.90;;
25567;SDS011;13455;51.480;7.594;2023-03-01T13:19:26;10.23;;;6.93;;
25567;SDS011;13455;51.480;7.594;2023-03-01T13:21:57;9.47;;;6.70;;
25567;SDS011;13455;51.480;7.594;2023-03-01T13:24:35;8.60;;;6.03;;
25567;SDS011;13455;51.480;7.594;2023-03-01T13:34:47;8.32;;;6.35;;
25567;SDS011;13455;51.480;7.594;2023-03-01T13:37:21;9.35;;;6.22;;
25567;SDS011;13455;51.480;7.594;2023-03-01T13:39:47;10.47;;;6.57;;
25567;SDS011;13455;51.480;7.594;2023-03-01T13:45:00;12.73;;;6.88;;
25567;SDS011;13455;51.480;7.594;2023-03-01T13:47:26;9.18;;;6.25;;
25567;SDS011;13455;51.480;7.594;2023-03-01T13:49:56;11.52;;;6.78;;
25567;SDS011;13455;51.480;7.594;2023-03-01T13:52:37;8.57;;;6.18;;
25567;SDS011;13455;51.480;7.594;2023-03-01T13:57:38;8.88;;;6.03;;
25567;SDS011;13455;51.480;7.594;2023-03-01T14:00:06;11.38;;;7.75;;
25567;SDS011;13455;51.480;7.594;2023-03-01T14:05:40;8.38;;;5.55;;
25567;SDS011;13455;51.480;7.594;2023-03-01T14:08:21;8.00;;;5.63;;
25567;SDS011;13455;51.480;7.594;2023-03-01T14:19:22;9.60;;;6.00;;
25567;SDS011;13455;51.480;7.594;2023-03-01T14:24:36;8.67;;;6.03;;
25567;SDS011;13455;51.480;7.594;2023-03-01T14:27:12;9.73;;;5.97;;
25567;SDS011;13455;51.480;7.594;2023-03-01T14:29:39;9.47;;;6.13;;
25567;SDS011;13455;51.480;7.594;2023-03-01T14:32:09;8.68;;;6.10;;
25567;SDS011;13455;51.480;7.594;2023-03-01T14:34:35;8.70;;;5.97;;
25567;SDS011;13455;51.480;7.594;2023-03-01T14:37:11;11.45;;;5.88;;
25567;SDS011;13455;51.480;7.594;2023-03-01T14:39:43;7.93;;;5.65;;
25567;SDS011;13455;51.480;7.594;2023-03-01T14:42:09;10.02;;;6.07;;
25567;SDS011;13455;51.480;7.594;2023-03-01T14:44:34;9.57;;;6.43;;
25567;SDS011;13455;51.480;7.594;2023-03-01T14:47:02;9.38;;;5.88;;
25567;SDS011;13455;51.480;7.594;2023-03-01T14:49:38;9.63;;;6.20;;
25567;SDS011;13455;51.480;7.594;2023-03-01T14:52:05;10.60;;;6.40;;
25567;SDS011;13455;51.480;7.594;2023-03-01T14:54:42;9.32;;;6.20;;
25567;SDS011;13455;51.480;7.594;2023-03-01T14:57:20;10.20;;;6.23;;
25567;SDS011;13455;51.480;7.594;2023-03-01T14:59:48;10.10;;;6.30;;
25567;SDS011;13455;51.480;7.594;2023-03-01T15:02:17;10.75;;;6.53;;
25567;SDS011;13455;51.480;7.594;2023-03-01T15:04:48;9.00;;;6.15;;
25567;SDS011;13455;51.480;7.594;2023-03-01T15:07:14;10.63;;;6.75;;
25567;SDS011;13455;51.480;7.594;2023-03-01T15:09:40;9.75;;;6.32;;
25567;SDS011;13455;51.480;7.594;2023-03-01T15:14:52;10.55;;;6.38;;
25567;SDS011;13455;51.480;7.594;2023-03-01T15:17:36;11.68;;;6.70;;
25567;SDS011;13455;51.480;7.594;2023-03-01T15:20:13;10.63;;;6.60;;
25567;SDS011;13455;51.480;7.594;2023-03-01T15:22:43;10.35;;;6.70;;
25567;SDS011;13455;51.480;7.594;2023-03-01T15:25:24;9.68;;;6.60;;
25567;SDS011;13455;51.480;7.594;2023-03-01T15:27:51;10.65;;;6.63;;
25567;SDS011;13455;51.480;7.594;2023-03-01T15:30:22;10.80;;;6.70;;
25567;SDS011;13455;51.480;7.594;2023-03-01T15:32:54;10.90;;;6.78;;
25567;SDS011;13455;51.480;7.594;2023-03-01T15:35:44;10.88;;;6.55;;
25567;SDS011;13455;51.480;7.594;2023-03-01T15:40:58;10.53;;;6.60;;
25567;SDS011;13455;51.480;7.594;2023-03-01T15:46:12;11.70;;;7.38;;
25567;SDS011;13455;51.480;7.594;2023-03-01T15:48:46;11.30;;;7.00;;
25567;SDS011;13455;51.480;7.594;2023-03-01T15:51:14;11.93;;;6.85;;
25567;SDS011;13455;51.480;7.594;2023-03-01T15:53:41;11.20;;;6.80;;
25567;SDS011;13455;51.480;7.594;2023-03-01T15:56:08;11.27;;;6.77;;
25567;SDS011;13455;51.480;7.594;2023-03-01T15:58:34;11.63;;;6.65;;
25567;SDS011;13455;51.480;7.594;2023-03-01T16:01:00;9.73;;;6.00;;
25567;SDS011;13455;51.480;7.594;2023-03-01T16:03:26;9.85;;;6.78;;
25567;SDS011;13455;51.480;7.594;2023-03-01T16:05:53;11.65;;;6.60;;
25567;SDS011;13455;51.480;7.594;2023-03-01T16:08:19;10.65;;;7.00;;
25567;SDS011;13455;51.480;7.594;2023-03-01T16:10:45;9.97;;;6.77;;
25567;SDS011;13455;51.480;7.594;2023-03-01T16:13:11;11.18;;;6.28;;
25567;SDS011;13455;51.480;7.594;2023-03-01T16:15:38;9.32;;;6.28;;
25567;SDS011;13455;51.480;7.594;2023-03-01T16:18:04;9.95;;;6.40;;
25567;SDS011;13455;51.480;7.594;2023-03-01T16:20:31;11.20;;;6.30;;
25567;SDS011;13455;51.480;7.594;2023-03-01T16:22:58;10.45;;;6.10;;
25567;SDS011;13455;51.480;7.594;2023-03-01T16:25:27;9.70;;;6.22;;
25567;SDS011;13455;51.480;7.594;2023-03-01T16:27:53;10.30;;;6.57;;
25567;SDS011;13455;51.480;7.594;2023-03-01T16:30:21;10.13;;;6.50;;
25567;SDS011;13455;51.480;7.594;2023-03-01T16:32:48;11.27;;;6.22;;
25567;SDS011;13455;51.480;7.594;2023-03-01T16:35:15;13.02;;;6.30;;
25567;SDS011;13455;51.480;7.594;2023-03-01T16:37:43;10.67;;;6.30;;